Vézelay (89) - D

Date : 19/08/2013
Distance : 1,700 km

Place Nom Licence Catégorie Club Temps min/km CN à J-60 Points Différence Nouveau CN
1 LOTERIE Laurine 7045 D20 5907NO 0:15:31 9'07 5880 4967 -913 5812
2 STARKE Paula 26505 D18 6913RA 0:15:52 9'20 4562 4857 +295 4946
3 CONIEL Lise 14886 D20 5604BR 0:15:59 9'24 5039 4822 -217 5129
4 ALAFORT Lucie 22475 D18 5116CA 0:16:02 9'25 4260 4807 +547 4420
5 OLIVIER Sandra 2179 D45 7716IF 0:16:25 9'39 5505 4695 -810 5530
6 DEFIX Anne-Claire 21435 D20 4203RA 0:16:47 9'52 4538 4592 +54 4617
7 LUTHRINGER Coline 10091 D18 8809LO 0:16:54 9'56 4760 4560 -200 4734
8 PERRIN Odile 2731 D40 4201RA 0:16:58 9'58 5515 4542 -973 5665
9 BONORA Marine 11542 D18 6906RA 0:17:02 10'01 3817 4525 +708 4186
10 ERBLAND Christine 23153 D40 9105IF 0:17:14 10'08 4853 4472 -381 4939
11 GONET Janick 21046 D40 2607RA 0:18:03 10'37 3994 4270 +276 4080
12 BERRARD Marianne 18130 D45 2607RA 0:18:09 10'40 3724 4246 +522 3797
13 MANIERE Marie 17067 D20 6008PI 0:18:23 10'48 3181 4192 +1011 3860
14 LE CAM Miti 27711 D18 3502BR 0:18:32 10'54 2861 4158 +1297 4126
15 GIRARD Melissa 28118 D18 5907NO 0:18:33 10'54 3647 4155 +508 3829
16 LE VERGE Helene 15367 D40 2904BR 0:18:44 11'01 2901 4114 +1213 3213
17 RENUCCI Maroussia 16297 D40 4504CE 0:18:53 11'06 4496 4081 -415 4512
18 BESTEL Sandra 10758 D18 9105IF 0:18:56 11'08 4015 4071 +56 4129
19 GUILMAIN Melanie 20572 D18 6208NO 0:18:59 11'10 4049 4060 +11 4058
20 GUINOT Marion 15018 D18 2108BO 0:19:10 11'16 4147 4021 -126 4173
21 LEVREUX Nathalie 14946 D45 7807IF 0:19:13 11'18 3751 4011 +260 3847
22 CHAILLAN Caroline 20381 D45 0404PR 0:19:29 11'27 4143 3956 -187 4143
23 LAVAL Corine 22371 D40 8106MP 0:19:35 11'31 3806 3936 +130 3779
24 BESTEL Florence 17309 D40 9105IF 0:19:54 11'42 4044 3873 -171 4033
25 LE CAM Muriel 19391 D40 3502BR 0:19:57 11'44 4277 3863 -414 4284
26 ELTZER Marie 26848 D18 6804AL 0:20:02 11'47 2920 3847 +927 3550
27 BONORA Beatrice 243 D45 6906RA 0:20:28 12'02 4111 3766 -345 4229
28 FIGUIERE Valérie 274 D45 7109BO 0:20:44 12'11 4065 3717 -348 4184
29 DELENNE A-Francoise 11495 D45 1307PR 0:20:46 12'12 3854 3711 -143 3850
30 BELDJILALI Stephanie 14568 D40 9801OM 0:20:47 12'13 3708 3374
31 DEBARBIEUX Julie 24574 D18 2108BO 0:20:59 12'20 3561 3673 +112 3603
32 ROCHE Sandrine 10684 D40 6911RA 0:21:14 12'29 3764 3630 -134 3806
33 PASSELERGUE Marianne 19215 D40 7808IF 0:21:16 12'30 4025 3624 -401 3989
34 CONIEL Anne 14884 D40 5604BR 0:21:19 12'32 3522 3615 +93 3617
35 CRETE Angélique 18827 D40 6008PI 0:21:26 12'36 4389 3596 -793 4389
36 RAUTURIER Nathalie 3200 D45 7807IF 0:21:28 12'37 3643 3590 -53 3668
37 VERDIN Alix 15276 D18 7109BO 0:21:39 12'44 3781 3560 -221 3963
38 BIHEL Julia 14738 D20 4203RA 0:21:54 12'52 3178 3519 +341 3415
39 RIVOLLIER Isaline 22451 D18 4201RA 0:21:55 12'53 4200 3517 -683 4242
40 CROENNE Marielle 27454 D40 0308AU 0:22:07 13'00 2662 3485 +823 3282
41 PERDRIZET Anne 2661 D40 2101BO 0:22:23 13'10 3085 3443 +358 3338
42 VALETTE Isabelle 2270 D40 6913RA 0:22:44 13'22 2876 3390 +514 2986
43 VERCAUTEREN M-Claude 16229 D40 6008PI 0:23:03 13'33 4417 3344 -1073 4484
44 ELIAS Laurence 19335 D45 1307PR 0:23:13 13'39 2997 3320 +323 3138
45 ANGLADE Françoise 22255 D45 5604BR 0:23:33 13'51 3454 3273 -181 3523
46 CLOUARD Florence 8549 D45 7807IF 0:24:16 14'16 3708 3176 -532 3695
47 GONNEAUD Perrine 11385 D18 7109BO 0:25:02 14'43 3537 3079 -458 3665
48 LOGE Sophie 12767 D45 5703LO 0:25:17 14'52 2831 3048 +217 3030
49 MERIGUET Valérie 16687 D45 7807IF 0:25:18 14'52 3059 3046 -13 3050
50 HERVE-JOUSSE Odile 13784 D45 9109IF 0:25:42 15'07 3403 2999 -404 3398
51 COLIN Marie-Noël 22020 D45 1311PR 0:26:07 15'21 2659 2951 +292 2923
52 RAVENEL Veronique 10902 D45 6804AL 0:26:15 15'26 3330 2936 -394 3257
53 DEMESSANCE Annaik 25595 D18 6008PI 0:26:40 15'41 3824 2890 -934 3750
54 HUCHON Patricia 25179 D45 2109BO 0:26:43 15'42 3507 2885 -622 3586
55 GONNEAUD Agnès 11384 D40 7109BO 0:26:52 15'48 0 2869 2637
56 CHABANCE Anne 20752 D45 4201RA 0:27:49 16'21 3233 2771 -462 3444
57 GUELENNOC Christine 17592 D45 2906BR 0:28:05 16'31 2707 2744 +37 2766
58 TROCCAZ Anne 27741 D40 3502BR 0:29:00 17'03 0 2658 0
59 INDEAUX Catherine 10394 D40 6913RA 0:30:08 17'43 2676 2558 -118 2721
60 ELIAS Maria 24546 D40 3319AQ 0:31:45 18'40 2536 2427 -109 2542
61 SERRE Francine 3429 D45 5907NO 0:31:59 18'48 2374 2410 +36 2385
62 WU Christine 22945 D40 7808IF 0:32:30 19'07 2728 2371 -357 2772
63 PINEAU Noelle 4678 D40 5702LO 0:36:35 21'31 1827 2107 +280 2231
64 CAVELIUS Sandrine 6495 D45 6906RA 0:37:45 22'12 0 2042 2317
65 QUENAULT Sophie 24051 D45 5803BO 0:40:29 23'48 1904 0
66 REYDANT Juliette 19882 D18 2704NM 0:46:09 27'08 1978 1670 -308 2257
PRUVOST Virginie 25881 D40 6208NO abandon None 2604 0 2600
DEVRIEUX Naïs 7672 D20 4203RA pm None 5750 0 5750
BULLIER Alisson 23427 D18 0207PI pm None 2945 0 2977